createdAt,value
2019-02-10T00:01:54.141Z,3.00
2019-02-10T00:04:23.294Z,2.90
2019-02-10T00:06:52.482Z,2.90
2019-02-10T00:09:21.683Z,2.80
2019-02-10T00:11:50.864Z,2.70
2019-02-10T00:14:19.973Z,2.70
2019-02-10T00:16:49.152Z,2.70
2019-02-10T00:19:18.364Z,2.60
2019-02-10T00:21:47.516Z,2.70
2019-02-10T00:24:16.629Z,2.80
2019-02-10T00:26:45.746Z,3.00
2019-02-10T00:29:14.861Z,3.00
2019-02-10T00:31:44.073Z,3.00
2019-02-10T00:34:13.207Z,3.00
2019-02-10T00:36:42.321Z,3.00
2019-02-10T00:39:11.427Z,3.00
2019-02-10T00:41:40.543Z,3.00
2019-02-10T00:44:09.685Z,2.90
2019-02-10T00:46:38.796Z,2.90
2019-02-10T00:49:07.943Z,2.80
2019-02-10T00:51:37.069Z,2.70
2019-02-10T00:54:06.179Z,2.80
2019-02-10T00:56:35.276Z,2.70
2019-02-10T00:59:04.476Z,2.60
2019-02-10T01:01:33.605Z,2.50
2019-02-10T01:04:03.136Z,2.50
2019-02-10T01:06:32.232Z,2.40
2019-02-10T01:09:01.347Z,2.40
2019-02-10T01:11:30.479Z,2.30
2019-02-10T01:13:59.617Z,2.30
2019-02-10T01:16:28.804Z,2.30
2019-02-10T01:19:08.401Z,2.20
2019-02-10T01:21:38.756Z,2.10
2019-02-10T01:24:07.933Z,2.00
2019-02-10T01:26:37.181Z,2.00
2019-02-10T01:29:06.320Z,2.00
2019-02-10T01:31:35.476Z,1.90
2019-02-10T01:34:04.587Z,1.90
2019-02-10T01:36:33.722Z,1.80
2019-02-10T01:39:03.821Z,1.80
2019-02-10T01:41:32.937Z,1.70
2019-02-10T01:44:02.078Z,1.60
2019-02-10T01:46:31.219Z,1.60
2019-02-10T01:49:00.420Z,1.50
2019-02-10T01:51:29.570Z,1.60
2019-02-10T01:53:58.700Z,1.50
2019-02-10T01:56:27.821Z,1.40
2019-02-10T01:58:56.961Z,1.20
2019-02-10T02:01:26.257Z,1.20
2019-02-10T02:03:55.355Z,1.20
2019-02-10T02:06:24.472Z,1.10
2019-02-10T02:08:53.615Z,1.10
2019-02-10T02:11:22.800Z,1.30
2019-02-10T02:13:51.916Z,1.30
2019-02-10T02:16:21.042Z,1.20
2019-02-10T02:18:50.129Z,1.10
2019-02-10T02:21:19.357Z,1.10
2019-02-10T02:23:48.459Z,1.10
2019-02-10T02:26:17.559Z,1.20
2019-02-10T02:28:46.715Z,1.30
2019-02-10T02:31:15.829Z,1.20
2019-02-10T02:33:45.030Z,1.30
2019-02-10T02:36:14.251Z,1.20
2019-02-10T02:38:43.372Z,1.10
2019-02-10T02:41:12.467Z,1.10
2019-02-10T02:43:41.656Z,1.10
2019-02-10T02:46:10.872Z,1.10
2019-02-10T02:48:40.042Z,1.20
2019-02-10T02:51:09.157Z,1.20
2019-02-10T02:53:38.237Z,1.20
2019-02-10T02:56:07.364Z,1.30
2019-02-10T02:58:36.439Z,1.20
2019-02-10T03:01:05.532Z,1.20
2019-02-10T03:03:34.660Z,1.20
2019-02-10T03:06:03.761Z,1.30
2019-02-10T03:08:32.944Z,1.30
2019-02-10T03:11:02.143Z,1.30
2019-02-10T03:13:31.312Z,1.20
2019-02-10T03:16:00.431Z,1.20
2019-02-10T03:18:29.564Z,1.10
2019-02-10T03:20:58.768Z,1.10
2019-02-10T03:23:27.924Z,1.10
2019-02-10T03:25:57.091Z,1.10
2019-02-10T03:28:26.230Z,1.10
2019-02-10T03:30:55.389Z,1.20
2019-02-10T03:33:24.550Z,1.20
2019-02-10T03:35:53.753Z,1.30
2019-02-10T03:38:22.859Z,1.30
2019-02-10T03:40:51.965Z,1.30
2019-02-10T03:43:21.144Z,1.40
2019-02-10T03:45:50.348Z,1.50
2019-02-10T03:48:19.579Z,1.50
2019-02-10T03:50:48.744Z,1.40
2019-02-10T03:53:17.920Z,1.50
2019-02-10T03:55:47.051Z,1.60
2019-02-10T03:58:16.159Z,1.60
2019-02-10T04:00:45.304Z,1.60
2019-02-10T04:03:14.428Z,1.50
2019-02-10T04:05:43.610Z,1.50
2019-02-10T04:08:12.776Z,1.60
2019-02-10T04:10:41.895Z,1.70
2019-02-10T04:13:11.092Z,1.80
2019-02-10T04:15:40.269Z,1.70
2019-02-10T04:18:09.442Z,1.70
2019-02-10T04:20:38.565Z,1.80
2019-02-10T04:23:10.167Z,1.80
2019-02-10T04:25:39.307Z,1.80
2019-02-10T04:28:08.444Z,1.70
2019-02-10T04:30:37.604Z,1.70
2019-02-10T04:33:06.746Z,1.90
2019-02-10T04:35:35.994Z,1.80
2019-02-10T04:38:05.175Z,1.60
2019-02-10T04:40:34.343Z,1.50
2019-02-10T04:43:03.541Z,1.50
2019-02-10T04:45:32.651Z,1.60
2019-02-10T04:48:01.880Z,1.70
2019-02-10T04:50:31.112Z,1.60
2019-02-10T04:53:00.333Z,1.60
2019-02-10T04:55:29.498Z,1.60
2019-02-10T04:57:58.688Z,1.60
2019-02-10T05:00:27.924Z,1.50
2019-02-10T05:02:57.074Z,1.40
2019-02-10T05:05:26.334Z,1.30
2019-02-10T05:07:55.550Z,1.30
2019-02-10T05:10:24.768Z,1.20
2019-02-10T05:12:53.850Z,1.20
2019-02-10T05:15:23.029Z,1.20
2019-02-10T05:17:52.306Z,0.90
2019-02-10T05:20:21.467Z,0.90
2019-02-10T05:22:50.689Z,0.90
2019-02-10T05:25:19.813Z,1.00
2019-02-10T05:27:49.048Z,1.00
2019-02-10T05:30:18.271Z,1.00
2019-02-10T05:32:47.435Z,1.00
2019-02-10T05:35:16.606Z,1.00
2019-02-10T05:37:45.743Z,1.00
2019-02-10T05:40:14.996Z,1.10
2019-02-10T05:42:44.275Z,1.10
2019-02-10T05:45:13.485Z,1.20
2019-02-10T05:47:42.679Z,1.20
2019-02-10T05:50:11.825Z,1.30
2019-02-10T05:52:40.913Z,1.20
2019-02-10T05:55:10.032Z,1.20
2019-02-10T05:57:39.128Z,1.20
2019-02-10T06:00:08.262Z,1.10
2019-02-10T06:02:37.458Z,1.10
2019-02-10T06:05:13.168Z,1.10
2019-02-10T06:07:42.487Z,1.10
2019-02-10T06:10:11.716Z,1.00
2019-02-10T06:12:41.194Z,1.00
2019-02-10T06:15:10.569Z,1.00
2019-02-10T06:17:39.972Z,1.00
2019-02-10T06:20:09.704Z,0.90
2019-02-10T06:22:39.274Z,0.90
2019-02-10T06:25:08.738Z,0.90
2019-02-10T06:27:38.093Z,0.90
2019-02-10T06:30:08.372Z,0.80
2019-02-10T06:32:37.809Z,0.80
2019-02-10T06:35:07.844Z,0.80
2019-02-10T06:37:37.301Z,0.70
2019-02-10T06:40:08.591Z,0.70
2019-02-10T06:42:38.239Z,0.60
2019-02-10T06:45:13.873Z,0.60
2019-02-10T06:47:43.862Z,0.60
2019-02-10T06:50:13.159Z,0.60
2019-02-10T06:52:42.596Z,0.60
2019-02-10T06:55:13.298Z,0.70
2019-02-10T06:57:42.628Z,0.70
2019-02-10T07:00:38.551Z,0.70
2019-02-10T07:03:40.641Z,0.70
2019-02-10T07:06:11.007Z,0.80
2019-02-10T07:08:40.956Z,0.90
2019-02-10T07:11:10.643Z,0.90
2019-02-10T07:13:45.875Z,1.00
2019-02-10T07:16:51.354Z,1.00
2019-02-10T07:20:16.466Z,1.10
2019-02-10T07:23:26.938Z,1.20
2019-02-10T07:26:16.386Z,1.30
2019-02-10T07:28:52.028Z,1.40
2019-02-10T07:31:52.706Z,1.60
2019-02-10T07:35:00.143Z,1.70
2019-02-10T07:38:20.046Z,1.80
2019-02-10T07:41:31.872Z,1.80
2019-02-10T07:44:35.936Z,2.00
2019-02-10T07:47:31.145Z,2.10
2019-02-10T07:50:15.162Z,2.40
2019-02-10T07:52:59.847Z,2.70
2019-02-10T07:56:37.653Z,3.20
2019-02-10T07:59:56.870Z,3.90
2019-02-10T08:02:51.138Z,5.10
2019-02-10T08:05:50.243Z,6.10
2019-02-10T08:08:49.119Z,6.90
2019-02-10T08:11:45.861Z,7.40
2019-02-10T08:14:45.050Z,7.10
2019-02-10T08:17:51.473Z,7.00
2019-02-10T08:20:40.524Z,7.10
2019-02-10T08:23:55.953Z,7.30
2019-02-10T08:27:09.748Z,7.50
2019-02-10T08:30:03.609Z,7.50
2019-02-10T08:32:46.774Z,7.50
2019-02-10T08:35:44.647Z,7.60
2019-02-10T08:38:30.089Z,6.90
2019-02-10T08:41:55.572Z,7.40
2019-02-10T08:45:14.301Z,7.50
2019-02-10T08:48:13.735Z,7.60
2019-02-10T08:51:45.397Z,7.70
2019-02-10T08:54:14.635Z,7.70
2019-02-10T08:56:44.777Z,7.40
2019-02-10T08:59:13.978Z,7.20
2019-02-10T09:01:43.213Z,7.40
2019-02-10T09:04:12.456Z,7.50
2019-02-10T09:06:41.659Z,7.40
2019-02-10T09:09:10.790Z,7.30
2019-02-10T09:11:39.947Z,7.10
2019-02-10T09:14:09.199Z,7.00
2019-02-10T09:16:38.407Z,6.80
2019-02-10T09:19:07.517Z,7.00
2019-02-10T09:21:36.690Z,7.00
2019-02-10T09:24:05.946Z,7.10
2019-02-10T09:26:35.423Z,7.00
2019-02-10T09:29:04.603Z,7.00
2019-02-10T09:31:33.769Z,7.20
2019-02-10T09:34:02.920Z,7.40
2019-02-10T09:36:32.131Z,7.50
2019-02-10T09:39:01.302Z,7.40
2019-02-10T09:41:30.493Z,7.80
2019-02-10T09:43:59.618Z,8.00
2019-02-10T09:46:33.297Z,8.30
2019-02-10T09:49:02.409Z,8.40
2019-02-10T09:51:31.544Z,9.10
2019-02-10T09:54:00.807Z,9.60
2019-02-10T09:56:29.939Z,10.10
2019-02-10T09:58:59.110Z,10.60
2019-02-10T10:01:28.228Z,10.90
2019-02-10T10:03:57.362Z,11.50
2019-02-10T10:06:26.521Z,12.00
2019-02-10T10:08:55.688Z,12.20
2019-02-10T10:11:24.825Z,12.20
2019-02-10T10:13:53.960Z,12.10
2019-02-10T10:16:23.092Z,12.10
2019-02-10T10:18:52.298Z,11.80
2019-02-10T10:21:21.529Z,11.80
2019-02-10T10:23:50.738Z,11.80
2019-02-10T10:26:19.866Z,11.40
2019-02-10T10:28:49.104Z,10.90
2019-02-10T10:31:18.329Z,10.60
2019-02-10T10:33:47.447Z,10.10
2019-02-10T10:36:16.598Z,10.20
2019-02-10T10:38:45.832Z,10.30
2019-02-10T10:41:15.053Z,10.20
2019-02-10T10:43:44.289Z,10.30
2019-02-10T10:46:13.510Z,10.50
2019-02-10T10:48:42.631Z,10.70
2019-02-10T10:51:11.767Z,10.90
2019-02-10T10:53:40.896Z,11.00
2019-02-10T10:56:10.093Z,11.00
2019-02-10T10:58:39.237Z,11.10
2019-02-10T11:01:08.433Z,11.20
2019-02-10T11:03:37.557Z,11.20
2019-02-10T11:06:06.689Z,11.20
2019-02-10T11:08:35.795Z,11.20
2019-02-10T11:11:04.972Z,11.50
2019-02-10T11:13:34.056Z,11.50
2019-02-10T11:16:03.188Z,11.60
2019-02-10T11:18:32.332Z,11.40
2019-02-10T11:21:01.512Z,11.50
2019-02-10T11:23:30.700Z,11.60
2019-02-10T11:25:59.873Z,11.80
2019-02-10T11:28:29.087Z,11.40
2019-02-10T11:30:58.235Z,11.60
2019-02-10T11:33:27.436Z,11.70
2019-02-10T11:35:56.540Z,11.90
2019-02-10T11:38:25.728Z,12.60
2019-02-10T11:40:55.059Z,13.00
2019-02-10T11:43:25.318Z,13.70
2019-02-10T11:45:54.605Z,13.60
2019-02-10T11:48:23.817Z,13.40
2019-02-10T11:50:53.028Z,13.90
2019-02-10T11:53:22.164Z,13.70
2019-02-10T11:55:51.265Z,13.60
2019-02-10T11:58:20.388Z,13.50
2019-02-10T12:00:49.539Z,13.50
2019-02-10T12:03:18.648Z,13.50
2019-02-10T12:05:47.846Z,12.90
2019-02-10T12:08:17.089Z,13.00
2019-02-10T12:10:46.221Z,13.10
2019-02-10T12:13:16.085Z,13.30
2019-02-10T12:15:45.297Z,13.70
2019-02-10T12:18:14.411Z,14.50
2019-02-10T12:20:43.568Z,14.50
2019-02-10T12:23:12.660Z,15.50
2019-02-10T12:25:41.780Z,14.80
2019-02-10T12:28:10.919Z,14.70
2019-02-10T12:30:40.099Z,15.00
2019-02-10T12:33:09.228Z,15.00
2019-02-10T12:35:38.347Z,15.10
2019-02-10T12:38:07.559Z,14.80
2019-02-10T12:40:36.831Z,15.40
2019-02-10T12:43:05.996Z,14.90
2019-02-10T12:45:35.191Z,15.20
2019-02-10T12:48:04.324Z,15.30
2019-02-10T12:50:33.436Z,15.70
2019-02-10T12:53:02.578Z,14.50
2019-02-10T12:55:31.693Z,14.50
2019-02-10T12:58:00.920Z,14.60
2019-02-10T13:00:30.668Z,14.50
2019-02-10T13:02:59.873Z,14.50
2019-02-10T13:05:29.039Z,14.70
2019-02-10T13:07:58.232Z,15.00
2019-02-10T13:10:27.423Z,15.40
2019-02-10T13:12:58.393Z,14.60
2019-02-10T13:15:29.040Z,14.50
2019-02-10T13:17:58.439Z,15.10
2019-02-10T13:20:27.580Z,14.80
2019-02-10T13:22:56.713Z,14.80
2019-02-10T13:25:25.816Z,15.00
2019-02-10T13:27:54.951Z,15.00
2019-02-10T13:30:24.061Z,14.90
2019-02-10T13:32:53.280Z,14.80
2019-02-10T13:35:22.379Z,14.60
2019-02-10T13:37:51.550Z,14.20
2019-02-10T13:40:20.732Z,14.10
2019-02-10T13:42:49.841Z,13.60
2019-02-10T13:45:19.032Z,13.70
2019-02-10T13:47:48.148Z,13.30
2019-02-10T13:50:17.373Z,13.50
2019-02-10T13:52:46.572Z,13.60
2019-02-10T13:55:16.018Z,13.40
2019-02-10T13:57:45.147Z,13.50
2019-02-10T14:00:16.534Z,13.70
2019-02-10T14:02:45.643Z,13.90
2019-02-10T14:05:14.770Z,14.40
2019-02-10T14:07:45.688Z,15.00
2019-02-10T14:10:15.887Z,15.10
2019-02-10T14:12:47.062Z,15.60
2019-02-10T14:16:28.495Z,15.70
2019-02-10T14:18:57.704Z,15.50
2019-02-10T14:21:26.829Z,15.30
2019-02-10T14:23:55.939Z,15.60
2019-02-10T14:26:25.113Z,15.40
2019-02-10T14:28:54.279Z,15.40
2019-02-10T14:31:23.428Z,15.00
2019-02-10T14:33:52.753Z,14.40
2019-02-10T14:36:22.065Z,13.60
2019-02-10T14:38:51.213Z,13.50
2019-02-10T14:41:20.445Z,13.30
2019-02-10T14:43:49.660Z,13.10
2019-02-10T14:46:18.802Z,13.00
2019-02-10T14:48:47.954Z,12.90
2019-02-10T14:51:17.099Z,12.80
2019-02-10T14:53:46.464Z,12.70
2019-02-10T14:56:15.536Z,12.40
2019-02-10T14:58:45.004Z,12.40
2019-02-10T15:01:16.569Z,12.30
2019-02-10T15:03:47.191Z,12.20
2019-02-10T15:06:16.459Z,12.10
2019-02-10T15:08:45.663Z,12.00
2019-02-10T15:11:14.903Z,11.90
2019-02-10T15:13:44.076Z,11.80
2019-02-10T15:16:13.265Z,11.80
2019-02-10T15:18:42.559Z,11.90
2019-02-10T15:21:11.701Z,11.90
2019-02-10T15:23:41.043Z,11.90
2019-02-10T15:26:10.240Z,11.90
2019-02-10T15:28:39.362Z,12.00
2019-02-10T15:31:08.551Z,12.10
2019-02-10T15:33:37.809Z,12.10
2019-02-10T15:36:06.929Z,11.90
2019-02-10T15:38:36.169Z,11.80
2019-02-10T15:41:05.381Z,11.70
2019-02-10T15:43:34.981Z,11.60
2019-02-10T15:46:04.209Z,11.60
2019-02-10T15:48:33.380Z,11.60
2019-02-10T15:51:02.534Z,11.40
2019-02-10T15:53:31.759Z,11.40
2019-02-10T15:56:00.988Z,11.30
2019-02-10T15:58:30.397Z,11.30
2019-02-10T16:00:59.865Z,11.20
2019-02-10T16:03:30.564Z,11.10
2019-02-10T16:06:00.031Z,11.00
2019-02-10T16:08:29.253Z,11.00
2019-02-10T16:10:58.604Z,10.60
2019-02-10T16:13:28.053Z,10.70
2019-02-10T16:15:57.264Z,10.70
2019-02-10T16:18:26.541Z,10.80
2019-02-10T16:20:55.826Z,10.60
2019-02-10T16:23:25.039Z,10.70
2019-02-10T16:25:54.207Z,10.60
2019-02-10T16:28:23.327Z,10.60
2019-02-10T16:30:52.483Z,10.70
2019-02-10T16:33:21.768Z,10.70
2019-02-10T16:35:50.941Z,10.60
2019-02-10T16:38:20.059Z,10.50
2019-02-10T16:40:49.253Z,10.40
2019-02-10T16:43:18.363Z,10.30
2019-02-10T16:45:47.572Z,10.30
2019-02-10T16:48:16.680Z,10.30
2019-02-10T16:50:45.780Z,10.20
2019-02-10T16:53:14.924Z,10.10
2019-02-10T16:55:44.131Z,10.10
2019-02-10T16:58:13.275Z,9.90
2019-02-10T17:00:42.381Z,10.00
2019-02-10T17:03:11.500Z,10.10
2019-02-10T17:05:40.691Z,10.00
2019-02-10T17:08:09.792Z,10.00
2019-02-10T17:10:38.921Z,9.80
2019-02-10T17:13:08.068Z,9.70
2019-02-10T17:15:37.149Z,9.70
2019-02-10T17:18:06.288Z,9.60
2019-02-10T17:20:35.433Z,9.60
2019-02-10T17:23:04.560Z,9.60
2019-02-10T17:25:33.672Z,9.50
2019-02-10T17:28:02.767Z,9.40
2019-02-10T17:30:31.996Z,9.40
2019-02-10T17:33:01.125Z,9.30
2019-02-10T17:35:30.364Z,9.30
2019-02-10T17:37:59.552Z,9.30
2019-02-10T17:40:33.121Z,9.30
2019-02-10T17:43:03.160Z,9.20
2019-02-10T17:45:32.432Z,9.20
2019-02-10T17:48:01.565Z,9.20
2019-02-10T17:50:30.696Z,9.20
2019-02-10T17:52:59.829Z,9.10
2019-02-10T17:55:29.150Z,9.00
2019-02-10T17:58:00.601Z,8.90
2019-02-10T18:00:33.883Z,8.80
2019-02-10T18:03:03.023Z,8.70
2019-02-10T18:05:32.293Z,8.70
2019-02-10T18:08:01.590Z,8.50
2019-02-10T18:10:30.719Z,8.20
2019-02-10T18:12:59.870Z,7.90
2019-02-10T18:15:55.155Z,7.50
2019-02-10T18:18:29.575Z,7.10
2019-02-10T18:21:16.528Z,6.90
2019-02-10T18:24:10.492Z,6.40
2019-02-10T18:26:53.141Z,5.90
2019-02-10T18:29:50.330Z,5.80
2019-02-10T18:32:47.313Z,5.60
2019-02-10T18:35:23.353Z,5.50
2019-02-10T18:38:09.868Z,5.30
2019-02-10T18:40:56.678Z,5.20
2019-02-10T18:43:44.767Z,4.90
2019-02-10T18:46:35.834Z,4.80
2019-02-10T18:49:32.634Z,4.50
2019-02-10T18:52:30.205Z,4.50
2019-02-10T18:55:17.185Z,4.50
2019-02-10T18:58:04.216Z,4.20
2019-02-10T19:00:51.192Z,4.20
2019-02-10T19:03:35.125Z,4.10
2019-02-10T19:06:17.854Z,4.10
2019-02-10T19:09:11.984Z,4.10
2019-02-10T19:12:03.079Z,4.00
2019-02-10T19:14:51.222Z,4.00
2019-02-10T19:17:39.301Z,3.90
2019-02-10T19:20:27.015Z,4.00
2019-02-10T19:23:18.191Z,4.00
2019-02-10T19:25:57.945Z,3.90
2019-02-10T19:28:33.754Z,3.80
2019-02-10T19:31:20.420Z,3.90
2019-02-10T19:34:11.307Z,3.70
2019-02-10T19:37:05.204Z,3.60
2019-02-10T19:39:59.590Z,3.60
2019-02-10T19:42:46.540Z,3.60
2019-02-10T19:45:33.565Z,3.70
2019-02-10T19:48:27.942Z,3.70
2019-02-10T19:51:08.865Z,3.80
2019-02-10T19:54:02.961Z,3.70
2019-02-10T19:56:53.791Z,3.70
2019-02-10T19:59:57.056Z,3.80
2019-02-10T20:02:37.795Z,3.70
2019-02-10T20:05:18.228Z,3.70
2019-02-10T20:08:24.800Z,3.80
2019-02-10T20:11:18.924Z,3.90
2019-02-10T20:14:02.653Z,3.90
2019-02-10T20:16:50.761Z,3.90
2019-02-10T20:19:44.756Z,3.90
2019-02-10T20:22:21.626Z,4.10
2019-02-10T20:25:04.780Z,4.10
2019-02-10T20:27:55.624Z,4.10
2019-02-10T20:30:49.696Z,4.10
2019-02-10T20:33:36.799Z,4.10
2019-02-10T20:36:11.830Z,4.10
2019-02-10T20:38:58.184Z,4.10
2019-02-10T20:41:43.311Z,4.10
2019-02-10T20:44:21.483Z,4.00
2019-02-10T20:46:59.376Z,4.10
2019-02-10T20:49:50.712Z,4.00
2019-02-10T20:52:46.369Z,4.00
2019-02-10T20:55:34.899Z,4.00
2019-02-10T20:58:22.059Z,3.90
2019-02-10T21:01:02.470Z,3.90
2019-02-10T21:03:49.388Z,3.90
2019-02-10T21:06:27.563Z,3.80
2019-02-10T21:09:20.129Z,3.80
2019-02-10T21:12:02.102Z,3.80
2019-02-10T21:14:47.809Z,3.80
2019-02-10T21:17:30.933Z,4.20
2019-02-10T21:20:18.040Z,4.20
2019-02-10T21:23:08.981Z,4.60
2019-02-10T21:25:52.983Z,4.60
2019-02-10T21:28:37.640Z,4.60
2019-02-10T21:31:25.774Z,4.60
2019-02-10T21:34:16.890Z,4.50
2019-02-10T21:37:00.564Z,4.60
2019-02-10T21:39:51.988Z,4.60
2019-02-10T21:42:29.131Z,4.70
2019-02-10T21:45:16.202Z,4.80
2019-02-10T21:47:56.328Z,4.90
2019-02-10T21:50:25.483Z,4.90
2019-02-10T21:52:54.633Z,4.90
2019-02-10T21:55:23.695Z,4.80
2019-02-10T21:57:52.858Z,4.80
2019-02-10T22:00:23.033Z,4.80
2019-02-10T22:02:52.207Z,4.80
2019-02-10T22:05:21.340Z,4.80
2019-02-10T22:07:50.437Z,4.80
2019-02-10T22:10:19.609Z,4.80
2019-02-10T22:12:48.787Z,4.80
2019-02-10T22:15:17.963Z,4.80
2019-02-10T22:17:47.182Z,4.80
2019-02-10T22:20:16.372Z,4.80
2019-02-10T22:22:45.476Z,4.70
2019-02-10T22:25:14.637Z,4.80
2019-02-10T22:27:43.813Z,4.90
2019-02-10T22:30:14.655Z,5.00
2019-02-10T22:32:43.820Z,5.00
2019-02-10T22:35:12.877Z,4.90
2019-02-10T22:37:42.032Z,5.00
2019-02-10T22:40:12.692Z,5.10
2019-02-10T22:42:45.918Z,5.00
2019-02-10T22:45:12.645Z,4.90
2019-02-10T22:47:41.804Z,5.00
2019-02-10T22:50:12.444Z,5.00
2019-02-10T22:52:41.547Z,4.90
2019-02-10T22:55:10.696Z,4.90
2019-02-10T22:57:41.117Z,4.90
2019-02-10T23:00:46.788Z,5.00
2019-02-10T23:03:16.484Z,5.00
2019-02-10T23:05:45.982Z,5.00
2019-02-10T23:08:15.143Z,4.90
2019-02-10T23:10:44.307Z,4.90
2019-02-10T23:13:13.457Z,4.90
2019-02-10T23:15:42.555Z,4.90
2019-02-10T23:18:11.668Z,4.80
2019-02-10T23:20:40.780Z,4.80
2019-02-10T23:23:09.905Z,4.70
2019-02-10T23:25:39.040Z,4.70
2019-02-10T23:28:08.195Z,4.60
2019-02-10T23:30:37.357Z,4.60
2019-02-10T23:33:06.496Z,4.60
2019-02-10T23:35:35.555Z,4.50
2019-02-10T23:38:04.675Z,4.50
2019-02-10T23:40:33.856Z,4.50
2019-02-10T23:43:03.133Z,4.50
2019-02-10T23:45:32.325Z,4.50
2019-02-10T23:48:01.565Z,4.50
2019-02-10T23:50:30.669Z,4.50
2019-02-10T23:52:59.840Z,4.50
2019-02-10T23:55:29.015Z,4.40
2019-02-10T23:57:58.135Z,4.50
